Time;durP1;ratioP1;P1;durP2;ratioP2;P2;SDS_P1;SDS_P2;PMS_P1;PMS_P2;Temp;Humidity;BMP_temperature;BMP_pressure;BME280_temperature;BME280_humidity;BME280_pressure;Samples;Min_cycle;Max_cycle;Signal;HPM_P1;HPM_P2
2024/01/16 00:01:46;;;;;;;17.43;5.80;;;3.40;99.90;;;;;;7284426;19;20197;-83
2024/01/16 00:04:12;;;;;;;22.57;6.47;;;3.40;99.90;;;;;;7306069;19;20198;-83
2024/01/16 00:06:41;;;;;;;19.17;6.27;;;3.40;99.90;;;;;;7285023;19;20185;-83
2024/01/16 00:09:09;;;;;;;16.57;6.07;;;3.50;99.90;;;;;;7285445;19;20203;-84
2024/01/16 00:11:42;;;;;;;20.43;5.60;;;3.40;99.90;;;;;;7283975;19;20251;-84
2024/01/16 00:14:07;;;;;;;18.03;5.70;;;3.40;99.90;;;;;;7282751;19;20192;-84
2024/01/16 00:16:33;;;;;;;20.20;5.60;;;3.40;99.90;;;;;;7282315;19;20197;-83
2024/01/16 00:18:59;;;;;;;13.57;5.40;;;3.40;99.90;;;;;;7281937;19;20263;-83
2024/01/16 00:21:25;;;;;;;17.03;4.90;;;3.50;99.90;;;;;;7281910;19;20198;-84
2024/01/16 00:23:51;;;;;;;11.90;4.90;;;3.50;99.90;;;;;;7284242;19;20186;-83
2024/01/16 00:26:23;;;;;;;19.07;5.67;;;3.50;99.90;;;;;;7283969;19;20196;-83
2024/01/16 00:28:49;;;;;;;21.60;5.50;;;3.40;99.90;;;;;;7283619;19;20677;-83
2024/01/16 00:31:15;;;;;;;19.17;5.63;;;3.40;99.90;;;;;;7286505;19;20258;-83
2024/01/16 00:33:41;;;;;;;15.13;5.70;;;3.40;99.90;;;;;;7306739;19;20547;-83
2024/01/16 00:36:07;;;;;;;18.13;5.50;;;3.40;99.90;;;;;;7283206;19;20186;-83
2024/01/16 00:38:33;;;;;;;15.63;5.80;;;3.40;99.90;;;;;;7280963;19;20714;-83
2024/01/16 00:41:00;;;;;;;15.63;4.97;;;3.30;99.90;;;;;;7284125;19;20191;-83
2024/01/16 00:43:26;;;;;;;20.43;5.20;;;3.20;99.90;;;;;;7283527;19;20194;-83
2024/01/16 00:45:52;;;;;;;14.87;5.10;;;3.30;99.90;;;;;;7283192;19;20614;-83
2024/01/16 00:48:19;;;;;;;19.07;5.40;;;3.30;99.90;;;;;;7284750;19;20229;-84
2024/01/16 00:50:46;;;;;;;14.57;5.07;;;3.30;99.90;;;;;;7283888;19;20207;-84
2024/01/16 00:53:12;;;;;;;17.03;5.53;;;3.20;99.90;;;;;;7305335;19;20194;-84
2024/01/16 00:55:37;;;;;;;15.97;5.57;;;3.20;99.90;;;;;;7283528;19;21088;-83
2024/01/16 00:58:03;;;;;;;18.33;5.80;;;3.00;99.90;;;;;;7281256;19;20271;-84
2024/01/16 01:00:31;;;;;;;15.90;5.30;;;2.90;99.90;;;;;;7283205;19;20190;-84
2024/01/16 01:02:58;;;;;;;16.97;5.00;;;2.80;99.90;;;;;;7282972;19;20690;-84
2024/01/16 01:05:28;;;;;;;18.23;5.40;;;2.80;99.90;;;;;;7281949;19;20192;-84
2024/01/16 01:07:57;;;;;;;16.37;5.27;;;2.70;99.90;;;;;;7281872;19;20767;-84
2024/01/16 01:10:24;;;;;;;16.30;5.13;;;2.40;99.90;;;;;;7282528;19;20302;-84
2024/01/16 01:12:52;;;;;;;23.20;5.87;;;2.10;99.90;;;;;;7282842;19;20195;-84
2024/01/16 01:15:20;;;;;;;14.73;4.93;;;2.10;99.90;;;;;;7286319;19;20675;-84
2024/01/16 01:17:48;;;;;;;17.87;5.57;;;2.20;99.90;;;;;;7287495;19;20210;-84
2024/01/16 01:20:15;;;;;;;18.67;5.53;;;2.20;99.90;;;;;;7287246;19;20646;-84
2024/01/16 01:22:40;;;;;;;17.33;5.30;;;2.30;99.90;;;;;;7306489;19;20189;-84
2024/01/16 01:25:07;;;;;;;14.63;4.73;;;2.30;99.90;;;;;;7283898;19;20211;-84
2024/01/16 01:27:33;;;;;;;16.77;5.20;;;2.30;99.90;;;;;;7281762;19;20202;-84
2024/01/16 01:29:58;;;;;;;19.30;5.67;;;2.40;99.90;;;;;;7283031;19;20195;-84
2024/01/16 01:32:24;;;;;;;11.07;4.83;;;2.40;99.90;;;;;;7284182;19;20195;-84
2024/01/16 01:34:50;;;;;;;15.33;5.27;;;2.40;99.90;;;;;;7280325;19;20574;-84
2024/01/16 01:37:15;;;;;;;17.10;5.10;;;2.40;99.90;;;;;;7282634;19;20191;-84
2024/01/16 01:39:41;;;;;;;21.43;5.93;;;2.40;99.90;;;;;;7305528;19;20194;-84
2024/01/16 01:42:07;;;;;;;15.10;5.03;;;2.40;99.90;;;;;;7281054;19;20194;-84
2024/01/16 01:44:33;;;;;;;17.13;5.33;;;2.50;99.90;;;;;;7282743;19;20203;-85
2024/01/16 01:46:58;;;;;;;13.40;5.10;;;2.50;99.90;;;;;;7281326;19;20199;-84
2024/01/16 01:49:26;;;;;;;15.13;5.30;;;2.50;99.90;;;;;;7282703;19;20191;-84
2024/01/16 01:51:52;;;;;;;16.27;4.80;;;2.40;99.90;;;;;;7281305;19;20188;-84
2024/01/16 01:54:20;;;;;;;12.37;4.90;;;2.40;99.90;;;;;;7281985;19;20194;-84
2024/01/16 01:56:47;;;;;;;16.00;4.90;;;2.30;99.90;;;;;;7281166;19;20182;-83
2024/01/16 01:59:18;;;;;;;16.57;4.40;;;2.30;99.90;;;;;;7299513;19;20273;-81
2024/01/16 02:01:48;;;;;;;21.07;5.07;;;2.30;99.90;;;;;;7290662;19;20703;-83
2024/01/16 02:04:17;;;;;;;16.50;4.70;;;2.30;99.90;;;;;;7296502;19;20203;-84
2024/01/16 02:06:46;;;;;;;15.40;4.87;;;2.40;99.90;;;;;;7300926;19;20186;-84
2024/01/16 02:09:15;;;;;;;16.20;5.57;;;2.40;99.90;;;;;;7304032;19;20224;-84
2024/01/16 02:11:42;;;;;;;12.60;4.30;;;2.40;99.90;;;;;;7282196;19;20185;-84
2024/01/16 02:14:09;;;;;;;19.30;5.43;;;2.40;99.90;;;;;;7280907;19;20189;-84
2024/01/16 02:16:40;;;;;;;19.03;4.83;;;2.30;99.90;;;;;;7282342;19;20187;-84
2024/01/16 02:19:07;;;;;;;17.03;4.87;;;2.30;99.90;;;;;;7281223;19;20269;-84
2024/01/16 02:21:49;;;;;;;14.93;4.43;;;2.40;99.90;;;;;;7280057;19;20189;-84
2024/01/16 02:24:16;;;;;;;14.23;5.10;;;2.30;99.90;;;;;;7266414;19;20194;-84
2024/01/16 02:26:42;;;;;;;13.57;4.60;;;2.30;99.90;;;;;;7300332;19;20198;-84
2024/01/16 02:29:08;;;;;;;15.80;5.17;;;2.30;99.90;;;;;;7285275;19;20203;-84
2024/01/16 02:31:34;;;;;;;17.83;5.30;;;2.10;99.90;;;;;;7287330;19;20194;-84
2024/01/16 02:34:00;;;;;;;16.10;4.83;;;2.00;99.90;;;;;;7284780;19;20265;-84
2024/01/16 02:36:26;;;;;;;18.83;5.27;;;2.00;99.90;;;;;;7288498;19;20192;-84
2024/01/16 02:38:53;;;;;;;18.00;5.13;;;2.00;99.90;;;;;;7285775;19;20984;-84
2024/01/16 02:41:19;;;;;;;17.23;5.00;;;2.00;99.90;;;;;;7286439;19;20189;-84
2024/01/16 02:43:45;;;;;;;14.03;4.60;;;1.90;99.90;;;;;;7295957;19;20197;-84
2024/01/16 02:46:11;;;;;;;15.23;4.80;;;1.90;99.90;;;;;;7316399;19;20191;-84
2024/01/16 02:48:37;;;;;;;17.53;4.90;;;1.80;99.90;;;;;;7287841;19;20193;-84
2024/01/16 02:51:03;;;;;;;14.13;4.50;;;1.70;99.90;;;;;;7286852;19;20203;-84
2024/01/16 02:53:30;;;;;;;13.80;4.40;;;1.60;99.90;;;;;;7287202;19;20189;-84
2024/01/16 02:55:58;;;;;;;13.93;4.80;;;1.60;99.90;;;;;;7287548;19;20206;-84
2024/01/16 02:58:24;;;;;;;15.80;4.77;;;1.70;99.90;;;;;;7286829;19;20197;-84
2024/01/16 03:00:51;;;;;;;15.80;4.80;;;1.70;99.90;;;;;;7286695;19;20189;-84
2024/01/16 03:03:17;;;;;;;16.27;4.83;;;1.80;99.90;;;;;;7288614;19;21102;-84
2024/01/16 03:05:43;;;;;;;14.07;4.67;;;1.80;99.90;;;;;;7308444;19;20192;-84
2024/01/16 03:08:08;;;;;;;14.87;4.87;;;1.80;99.90;;;;;;7286972;19;20556;-84
2024/01/16 03:10:35;;;;;;;13.70;4.87;;;1.80;99.90;;;;;;7286849;19;20191;-84
2024/01/16 03:13:01;;;;;;;15.63;4.90;;;1.70;99.90;;;;;;7286694;19;20261;-84
2024/01/16 03:15:27;;;;;;;18.57;5.80;;;1.60;99.90;;;;;;7287053;19;20190;-84
2024/01/16 03:17:53;;;;;;;14.43;5.00;;;1.60;99.90;;;;;;7287428;19;20193;-84
2024/01/16 03:20:19;;;;;;;20.23;4.83;;;1.60;99.90;;;;;;7286314;19;20197;-84
2024/01/16 03:22:44;;;;;;;17.63;5.07;;;1.60;99.90;;;;;;7295252;19;20189;-83
2024/01/16 03:25:12;;;;;;;17.30;5.47;;;1.70;99.90;;;;;;7309545;19;20581;-84
2024/01/16 03:27:37;;;;;;;19.60;5.40;;;1.70;99.90;;;;;;7285594;19;20189;-84
2024/01/16 03:30:04;;;;;;;16.20;5.80;;;1.60;99.90;;;;;;7285905;19;20195;-83
2024/01/16 03:32:30;;;;;;;19.27;5.07;;;1.60;99.90;;;;;;7287229;19;20248;-84
2024/01/16 03:34:55;;;;;;;13.87;5.30;;;1.70;99.90;;;;;;7287276;19;20203;-83
2024/01/16 03:37:21;;;;;;;15.30;5.43;;;1.60;99.90;;;;;;7286358;19;20181;-84
2024/01/16 03:39:47;;;;;;;13.97;4.80;;;1.50;99.90;;;;;;7281622;19;20181;-83
2024/01/16 03:42:13;;;;;;;13.20;4.87;;;1.50;99.90;;;;;;7306431;19;20225;-81
2024/01/16 03:44:40;;;;;;;13.63;5.00;;;1.60;99.90;;;;;;7294644;19;20181;-84
2024/01/16 03:47:06;;;;;;;16.47;5.40;;;1.60;99.90;;;;;;7285043;19;20184;-84
2024/01/16 03:49:32;;;;;;;18.27;6.37;;;1.60;99.90;;;;;;7284943;19;20192;-84
2024/01/16 03:51:58;;;;;;;16.07;5.17;;;1.60;99.90;;;;;;7283590;19;20194;-84
2024/01/16 03:54:25;;;;;;;12.80;4.83;;;1.50;99.90;;;;;;7284968;19;20193;-84
2024/01/16 03:56:51;;;;;;;21.20;5.37;;;1.50;99.90;;;;;;7284270;19;20182;-84
2024/01/16 03:59:17;;;;;;;15.63;5.30;;;1.60;99.90;;;;;;7283412;19;20181;-83
2024/01/16 04:01:44;;;;;;;16.70;5.40;;;1.40;99.90;;;;;;7306700;19;20196;-84
2024/01/16 04:04:10;;;;;;;17.23;5.27;;;1.40;99.90;;;;;;7284465;19;20185;-83
2024/01/16 04:06:36;;;;;;;18.13;5.50;;;1.30;99.90;;;;;;7283615;19;20249;-84
2024/01/16 04:09:02;;;;;;;16.60;5.07;;;1.30;99.90;;;;;;7284933;19;20195;-85
2024/01/16 04:11:29;;;;;;;15.37;5.07;;;1.30;99.90;;;;;;7283805;19;20259;-84
2024/01/16 04:13:55;;;;;;;21.43;5.77;;;1.30;99.90;;;;;;7286377;19;20186;-84
2024/01/16 04:16:21;;;;;;;17.43;4.77;;;1.40;99.90;;;;;;7287632;19;20181;-83
2024/01/16 04:18:48;;;;;;;16.87;5.13;;;1.40;99.90;;;;;;7285178;19;20180;-84
2024/01/16 04:21:14;;;;;;;19.37;6.87;;;1.40;99.90;;;;;;7299647;19;20705;-83
2024/01/16 04:23:42;;;;;;;14.43;5.10;;;1.40;99.90;;;;;;7292501;19;20274;-83
2024/01/16 04:26:08;;;;;;;19.17;5.47;;;1.40;99.90;;;;;;7280710;19;20696;-84
2024/01/16 04:28:34;;;;;;;18.07;5.37;;;1.40;99.90;;;;;;7283712;19;20225;-84
2024/01/16 04:31:01;;;;;;;18.87;5.77;;;1.40;99.90;;;;;;7283230;19;20204;-84
2024/01/16 04:33:27;;;;;;;25.50;5.40;;;1.50;99.90;;;;;;7283525;19;20222;-84
2024/01/16 04:35:53;;;;;;;13.30;5.23;;;1.40;99.90;;;;;;7284659;19;20186;-83
2024/01/16 04:38:19;;;;;;;18.57;5.33;;;1.40;99.90;;;;;;7285244;19;20235;-84
2024/01/16 04:40:45;;;;;;;16.13;5.77;;;1.40;99.90;;;;;;7293903;19;20185;-84
2024/01/16 04:43:10;;;;;;;18.47;5.53;;;1.40;99.90;;;;;;7306429;19;20189;-84
2024/01/16 04:45:36;;;;;;;15.93;5.90;;;1.30;99.90;;;;;;7285174;19;20534;-84
2024/01/16 04:48:02;;;;;;;15.93;5.13;;;1.30;99.90;;;;;;7285810;19;20205;-84
2024/01/16 04:50:31;;;;;;;18.93;5.57;;;1.20;99.90;;;;;;7283358;19;20260;-84
2024/01/16 04:53:00;;;;;;;20.40;5.70;;;1.20;99.90;;;;;;7287202;19;20199;-84
2024/01/16 04:55:27;;;;;;;15.17;5.57;;;1.10;99.90;;;;;;7283555;19;20209;-84
2024/01/16 04:57:55;;;;;;;19.50;5.80;;;1.10;99.90;;;;;;7285912;19;20185;-84
2024/01/16 05:00:20;;;;;;;18.60;5.30;;;1.10;99.90;;;;;;7288299;19;20185;-84
2024/01/16 05:02:47;;;;;;;12.43;6.00;;;1.00;99.90;;;;;;7289918;19;20188;-83
2024/01/16 05:05:13;;;;;;;13.90;5.17;;;0.90;99.90;;;;;;7311453;19;20276;-84
2024/01/16 05:07:40;;;;;;;15.87;5.60;;;0.90;99.90;;;;;;7288394;19;20185;-84
2024/01/16 05:10:07;;;;;;;15.93;5.67;;;0.90;99.90;;;;;;7287629;19;20214;-84
2024/01/16 05:12:33;;;;;;;18.73;5.50;;;0.90;99.90;;;;;;7285396;19;20185;-84
2024/01/16 05:14:58;;;;;;;17.97;5.37;;;0.90;99.90;;;;;;7285193;19;20206;-83
2024/01/16 05:17:24;;;;;;;16.93;5.17;;;0.90;99.90;;;;;;7284486;19;20210;-84
2024/01/16 05:19:50;;;;;;;16.87;5.47;;;0.80;99.90;;;;;;7282398;19;20195;-84
2024/01/16 05:22:16;;;;;;;17.30;5.10;;;0.90;99.90;;;;;;7300661;19;20181;-83
2024/01/16 05:24:41;;;;;;;21.10;5.53;;;1.00;99.90;;;;;;7304553;19;20188;-83
2024/01/16 05:27:09;;;;;;;70.67;7.63;;;0.90;99.90;;;;;;7282336;19;20205;-84
2024/01/16 05:29:37;;;;;;;21.27;5.87;;;0.70;99.90;;;;;;7281124;19;20217;-84
2024/01/16 05:32:04;;;;;;;17.67;5.43;;;0.70;99.90;;;;;;7282769;19;20189;-84
2024/01/16 05:34:30;;;;;;;20.33;5.40;;;0.60;99.90;;;;;;7284210;19;20648;-84
2024/01/16 05:36:55;;;;;;;25.53;5.93;;;0.60;99.90;;;;;;7283137;19;20209;-84
2024/01/16 05:39:21;;;;;;;14.80;5.03;;;0.70;99.90;;;;;;7283273;19;20913;-84
2024/01/16 05:41:50;;;;;;;18.10;5.40;;;0.70;99.90;;;;;;7281197;19;20192;-85
2024/01/16 05:44:16;;;;;;;13.90;5.00;;;0.70;99.90;;;;;;7304314;19;20197;-85
2024/01/16 05:46:43;;;;;;;17.40;5.20;;;0.70;99.90;;;;;;7286783;19;20249;-84
2024/01/16 05:49:08;;;;;;;20.37;5.60;;;0.70;99.90;;;;;;7285027;19;20192;-85
2024/01/16 05:51:34;;;;;;;14.33;5.40;;;0.70;99.90;;;;;;7282183;19;20204;-85
2024/01/16 05:54:00;;;;;;;22.03;5.83;;;0.70;99.90;;;;;;7283023;19;20196;-85
2024/01/16 05:56:25;;;;;;;16.93;5.40;;;0.70;99.90;;;;;;7284085;19;20177;-85
2024/01/16 05:58:52;;;;;;;14.37;5.30;;;0.70;99.90;;;;;;7281853;19;20231;-85
2024/01/16 06:01:17;;;;;;;17.60;5.77;;;0.80;99.90;;;;;;7282084;19;20185;-86
2024/01/16 06:03:46;;;;;;;16.47;5.33;;;0.80;99.90;;;;;;7308484;19;20261;-86
2024/01/16 06:06:12;;;;;;;17.53;6.17;;;0.70;99.90;;;;;;7288214;19;20193;-84
2024/01/16 06:08:37;;;;;;;18.67;5.70;;;0.70;99.90;;;;;;7286551;19;20196;-84
2024/01/16 06:11:03;;;;;;;12.47;5.37;;;0.80;99.90;;;;;;7286320;19;20208;-85
2024/01/16 06:13:31;;;;;;;15.60;6.07;;;1.00;99.90;;;;;;7289367;19;20191;-85
2024/01/16 06:15:57;;;;;;;14.67;5.60;;;1.00;99.90;;;;;;7288709;19;20200;-85
2024/01/16 06:18:23;;;;;;;14.67;5.57;;;1.10;99.90;;;;;;7288138;19;20219;-84
2024/01/16 06:20:48;;;;;;;19.27;5.53;;;1.20;99.90;;;;;;7288411;19;20219;-82
2024/01/16 06:23:14;;;;;;;17.07;5.87;;;1.10;99.90;;;;;;7310124;19;20546;-84
2024/01/16 06:25:40;;;;;;;13.47;5.37;;;1.10;99.90;;;;;;7289203;19;20188;-84
2024/01/16 06:28:07;;;;;;;16.90;5.30;;;1.10;99.90;;;;;;7289581;19;20198;-85
2024/01/16 06:30:32;;;;;;;19.80;4.90;;;1.10;99.90;;;;;;7286877;19;20190;-84
2024/01/16 06:32:59;;;;;;;15.07;5.13;;;1.00;99.90;;;;;;7287200;19;20267;-84
2024/01/16 06:35:25;;;;;;;17.03;5.80;;;1.00;99.90;;;;;;7287095;19;20181;-85
2024/01/16 06:37:51;;;;;;;16.63;5.53;;;1.00;99.90;;;;;;7288132;19;20186;-84
2024/01/16 06:40:16;;;;;;;13.97;5.10;;;1.00;99.90;;;;;;7294480;19;20181;-84
2024/01/16 06:42:42;;;;;;;19.30;5.17;;;1.00;99.90;;;;;;7310383;19;20181;-85
2024/01/16 06:45:08;;;;;;;15.43;5.00;;;1.00;99.90;;;;;;7288695;19;20190;-86
2024/01/16 06:47:34;;;;;;;14.60;5.27;;;1.20;99.90;;;;;;7286942;19;20185;-85
2024/01/16 06:50:00;;;;;;;16.13;5.03;;;1.20;99.90;;;;;;7283592;19;20505;-85
2024/01/16 06:52:25;;;;;;;17.50;6.17;;;1.20;99.90;;;;;;7287685;19;20201;-84
2024/01/16 06:54:51;;;;;;;14.47;5.50;;;1.30;99.90;;;;;;7288777;19;20224;-83
2024/01/16 06:57:17;;;;;;;16.50;5.50;;;1.30;99.90;;;;;;7291910;19;20187;-85
2024/01/16 06:59:42;;;;;;;17.80;5.17;;;1.40;99.90;;;;;;7308922;19;20185;-86
2024/01/16 07:02:08;;;;;;;15.07;5.10;;;1.30;99.90;;;;;;7287160;19;20261;-86
2024/01/16 07:04:34;;;;;;;15.87;4.80;;;1.30;99.90;;;;;;7287444;19;20223;-86
2024/01/16 07:07:00;;;;;;;17.93;5.43;;;1.10;99.90;;;;;;7287824;19;20186;-86
2024/01/16 07:09:27;;;;;;;14.00;5.10;;;1.10;99.90;;;;;;7288625;19;20676;-85
2024/01/16 07:11:53;;;;;;;16.87;5.20;;;1.20;99.90;;;;;;7287819;19;21250;-86
2024/01/16 07:14:19;;;;;;;14.23;5.10;;;1.20;99.90;;;;;;7287429;19;20189;-86
2024/01/16 07:16:46;;;;;;;16.07;5.30;;;1.20;99.90;;;;;;7310820;19;20194;-85
2024/01/16 07:19:12;;;;;;;17.57;5.13;;;1.10;99.90;;;;;;7289415;19;20189;-87
2024/01/16 07:21:38;;;;;;;17.63;5.40;;;1.00;99.90;;;;;;7283044;19;20279;-86
2024/01/16 07:24:04;;;;;;;11.67;4.67;;;0.90;99.90;;;;;;7283252;19;20185;-86
2024/01/16 07:26:30;;;;;;;11.93;5.03;;;0.90;99.90;;;;;;7285957;19;20188;-86
2024/01/16 07:28:55;;;;;;;14.53;5.40;;;0.80;99.90;;;;;;7286611;19;20205;-85
2024/01/16 07:31:21;;;;;;;16.27;5.00;;;0.90;99.90;;;;;;7286090;19;20660;-86
2024/01/16 07:33:47;;;;;;;13.97;5.20;;;0.80;99.90;;;;;;7288995;19;20193;-86
2024/01/16 07:36:14;;;;;;;11.00;5.57;;;0.80;99.90;;;;;;7308042;19;20617;-86
2024/01/16 07:38:39;;;;;;;12.13;4.40;;;0.80;99.90;;;;;;7286259;19;20600;-86
2024/01/16 07:41:06;;;;;;;18.90;5.03;;;0.70;99.90;;;;;;7284164;19;21574;-87
2024/01/16 07:43:32;;;;;;;18.03;5.63;;;0.70;99.90;;;;;;7285153;19;20689;-83
2024/01/16 07:45:57;;;;;;;14.00;4.93;;;0.80;99.90;;;;;;7286476;19;20184;-85
2024/01/16 07:48:23;;;;;;;17.13;5.07;;;0.80;99.90;;;;;;7285225;19;20222;-84
2024/01/16 07:50:49;;;;;;;16.87;5.23;;;0.90;99.90;;;;;;7286388;19;20189;-83
2024/01/16 07:53:15;;;;;;;17.67;5.20;;;0.90;99.90;;;;;;7308776;19;20185;-83
2024/01/16 07:55:42;;;;;;;18.27;4.90;;;0.90;99.90;;;;;;7284692;19;20679;-85
2024/01/16 07:58:11;;;;;;;12.00;5.10;;;0.90;99.90;;;;;;7285887;19;20192;-84
2024/01/16 08:00:37;;;;;;;12.33;5.17;;;0.90;99.90;;;;;;7281846;19;20206;-84
2024/01/16 08:03:03;;;;;;;13.87;4.87;;;0.90;99.90;;;;;;7283726;19;20357;-84
2024/01/16 08:05:30;;;;;;;11.27;4.40;;;0.90;99.90;;;;;;7286404;19;20541;-84
2024/01/16 08:07:59;;;;;;;16.30;4.80;;;1.00;99.90;;;;;;7284385;19;20183;-84
2024/01/16 08:10:25;;;;;;;12.97;4.47;;;1.10;99.90;;;;;;7285975;19;20297;-84
2024/01/16 08:12:51;;;;;;;14.23;4.63;;;1.10;99.90;;;;;;7285069;19;20256;-83
2024/01/16 08:15:16;;;;;;;13.37;4.43;;;1.30;99.90;;;;;;7293903;19;20704;-83
2024/01/16 08:17:42;;;;;;;16.00;5.20;;;1.30;99.90;;;;;;7305550;19;20307;-84
2024/01/16 08:20:11;;;;;;;13.53;4.30;;;1.40;99.90;;;;;;7283985;19;20192;-84
2024/01/16 08:22:37;;;;;;;17.07;6.33;;;1.50;99.90;;;;;;7285194;19;20191;-84
2024/01/16 08:25:06;;;;;;;15.40;5.43;;;1.50;99.90;;;;;;7284193;19;20274;-84
2024/01/16 08:27:33;;;;;;;14.27;4.90;;;1.50;99.90;;;;;;7284189;19;20190;-84
2024/01/16 08:29:59;;;;;;;17.07;4.47;;;1.60;99.90;;;;;;7283069;19;20215;-84
2024/01/16 08:32:25;;;;;;;14.73;4.73;;;1.70;99.90;;;;;;7285302;19;20194;-84
2024/01/16 08:34:51;;;;;;;14.23;4.63;;;1.80;99.90;;;;;;7282785;19;20667;-84
2024/01/16 08:37:17;;;;;;;15.40;4.60;;;1.90;99.90;;;;;;7290068;19;20319;-83
2024/01/16 08:39:43;;;;;;;13.93;4.67;;;1.80;99.90;;;;;;7304360;19;20739;-84
2024/01/16 08:42:11;;;;;;;12.67;4.30;;;2.00;99.90;;;;;;7284696;19;20511;-84
2024/01/16 08:44:40;;;;;;;10.70;4.63;;;2.10;99.90;;;;;;7284646;19;20184;-84
2024/01/16 08:47:06;;;;;;;14.70;5.33;;;2.30;99.90;;;;;;7284622;19;20327;-84
2024/01/16 08:49:33;;;;;;;14.77;4.67;;;2.40;99.90;;;;;;7283386;19;20186;-84
2024/01/16 08:51:59;;;;;;;13.67;5.07;;;2.40;99.90;;;;;;7284508;19;20198;-83
2024/01/16 08:54:25;;;;;;;17.73;5.47;;;2.50;99.90;;;;;;7284346;19;20182;-84
2024/01/16 08:56:51;;;;;;;12.97;4.70;;;2.40;99.90;;;;;;7283987;19;20192;-84
2024/01/16 08:59:18;;;;;;;17.83;4.37;;;2.50;99.90;;;;;;7280902;19;20216;-82
2024/01/16 09:01:43;;;;;;;13.63;4.57;;;2.50;99.90;;;;;;7302942;19;20299;-83
2024/01/16 09:04:09;;;;;;;11.47;4.47;;;2.50;99.90;;;;;;7280126;19;20182;-82
2024/01/16 09:06:35;;;;;;;9.40;3.63;;;2.50;99.90;;;;;;7281685;19;20188;-82
2024/01/16 09:09:04;;;;;;;11.53;4.13;;;2.40;99.90;;;;;;7281266;19;20181;-83
2024/01/16 09:11:29;;;;;;;15.33;4.40;;;2.60;99.90;;;;;;7281994;19;20189;-82
2024/01/16 09:13:55;;;;;;;17.10;4.43;;;2.60;99.90;;;;;;7283376;19;20185;-83
2024/01/16 09:16:21;;;;;;;18.27;4.53;;;2.70;99.90;;;;;;7281957;19;20213;-82
2024/01/16 09:18:46;;;;;;;17.20;4.50;;;2.90;99.90;;;;;;7295521;19;20185;-81
2024/01/16 09:21:14;;;;;;;12.63;4.17;;;3.00;99.90;;;;;;7299042;19;20189;-82
2024/01/16 09:23:39;;;;;;;14.23;4.30;;;3.00;99.90;;;;;;7284278;19;20198;-83
2024/01/16 09:26:05;;;;;;;11.60;4.60;;;3.00;99.90;;;;;;7283193;19;20668;-83
2024/01/16 09:28:31;;;;;;;13.63;4.43;;;3.10;99.90;;;;;;7281495;19;20831;-83
2024/01/16 09:30:59;;;;;;;12.37;4.70;;;3.30;99.90;;;;;;7282295;19;20194;-83
2024/01/16 09:33:26;;;;;;;13.23;4.30;;;3.50;99.90;;;;;;7282864;19;20181;-83
2024/01/16 09:35:52;;;;;;;12.60;4.37;;;3.70;99.90;;;;;;7283472;19;20178;-83
2024/01/16 09:38:18;;;;;;;35.40;16.20;;;3.70;99.90;;;;;;7287020;19;20188;-83
2024/01/16 09:40:44;;;;;;;22.03;8.67;;;3.90;99.90;;;;;;7311337;19;20183;-82
2024/01/16 09:43:11;;;;;;;26.60;10.03;;;3.90;99.90;;;;;;7291096;19;20646;-82
2024/01/16 09:45:39;;;;;;;22.70;9.77;;;4.00;99.90;;;;;;7290343;19;20199;-82
2024/01/16 09:48:05;;;;;;;15.03;5.23;;;4.00;99.90;;;;;;7288102;19;20631;-82
2024/01/16 09:50:31;;;;;;;21.73;8.60;;;3.80;99.90;;;;;;7290245;19;20192;-82
2024/01/16 09:52:58;;;;;;;22.07;8.63;;;3.70;99.90;;;;;;7289204;19;20196;-82
2024/01/16 09:55:24;;;;;;;22.53;8.90;;;3.70;99.90;;;;;;7288245;19;20187;-83
2024/01/16 09:57:53;;;;;;;20.50;8.60;;;3.70;99.90;;;;;;7288754;19;20708;-81
2024/01/16 10:00:19;;;;;;;16.67;6.20;;;3.60;99.90;;;;;;7289139;19;20196;-82
2024/01/16 10:02:45;;;;;;;18.33;7.30;;;3.50;99.90;;;;;;7312016;19;20192;-87
2024/01/16 10:05:12;;;;;;;27.60;10.40;;;3.50;99.90;;;;;;7289015;19;20200;-76
2024/01/16 10:07:39;;;;;;;26.03;9.93;;;3.20;99.90;;;;;;7285905;19;20186;-75
2024/01/16 10:10:06;;;;;;;19.47;7.80;;;3.20;99.90;;;;;;7285723;19;20193;-76
2024/01/16 10:12:33;;;;;;;27.97;11.17;;;3.30;99.90;;;;;;7287510;19;20191;-77
2024/01/16 10:14:59;;;;;;;24.77;8.73;;;3.40;99.90;;;;;;7287019;19;20200;-76
2024/01/16 10:17:43;;;;;;;20.77;9.03;;;3.40;99.90;;;;;;7288651;19;20197;-77
2024/01/16 10:20:13;;;;;;;18.00;7.67;;;3.60;99.90;;;;;;7286348;19;20210;-79
2024/01/16 10:22:40;;;;;;;24.77;10.37;;;3.60;99.90;;;;;;7287763;19;20265;-78
2024/01/16 10:25:08;;;;;;;23.87;10.10;;;3.70;99.90;;;;;;7287707;19;20276;-77
2024/01/16 10:27:35;;;;;;;27.63;11.40;;;3.80;99.90;;;;;;7287311;19;20192;-78
2024/01/16 10:30:02;;;;;;;35.17;11.23;;;4.00;99.90;;;;;;7284443;19;20183;-78
2024/01/16 10:32:29;;;;;;;46.57;15.20;;;4.30;99.90;;;;;;7286231;19;20200;-78
2024/01/16 10:35:07;;;;;;;35.40;11.77;;;5.00;99.90;;;;;;7284621;19;20180;-78
2024/01/16 10:37:53;;;;;;;22.23;8.80;;;6.30;99.90;;;;;;7283051;19;20180;-77
2024/01/16 10:40:25;;;;;;;16.37;5.47;;;7.50;99.90;;;;;;7262960;19;20188;-77
2024/01/16 10:43:00;;;;;;;11.67;4.43;;;8.60;99.90;;;;;;7284150;19;20588;-76
2024/01/16 10:45:26;;;;;;;10.47;3.87;;;10.10;99.90;;;;;;7285834;19;20189;-77
2024/01/16 10:48:08;;;;;;;11.03;3.73;;;10.80;99.90;;;;;;7285254;19;20216;-77
2024/01/16 10:50:35;;;;;;;12.80;3.97;;;11.90;99.90;;;;;;7286457;19;20199;-77
2024/01/16 10:53:04;;;;;;;10.83;3.90;;;12.60;99.90;;;;;;7285567;19;20644;-77
2024/01/16 10:55:34;;;;;;;11.37;4.40;;;13.70;99.90;;;;;;7285704;19;20188;-78
2024/01/16 10:58:02;;;;;;;13.10;5.50;;;14.30;99.90;;;;;;7284711;19;20197;-77
2024/01/16 11:00:30;;;;;;;15.00;5.43;;;14.20;99.90;;;;;;7284639;19;20258;-78
2024/01/16 11:03:07;;;;;;;10.17;4.10;;;14.60;99.90;;;;;;7284779;19;20185;-78
2024/01/16 11:05:35;;;;;;;13.73;3.93;;;14.90;99.90;;;;;;7284553;19;20200;-78
2024/01/16 11:08:01;;;;;;;12.47;4.40;;;15.40;99.90;;;;;;7284637;19;20188;-78
2024/01/16 11:10:31;;;;;;;11.57;4.00;;;15.80;99.90;;;;;;7286030;19;20182;-78
2024/01/16 11:13:00;;;;;;;9.27;3.80;;;16.20;97.70;;;;;;7288137;19;20624;-78
2024/01/16 11:15:28;;;;;;;8.83;3.70;;;16.50;97.00;;;;;;7286382;19;20199;-78
2024/01/16 11:17:56;;;;;;;10.67;4.00;;;16.70;95.70;;;;;;7286137;19;20191;-78
2024/01/16 11:20:22;;;;;;;12.20;4.43;;;16.60;94.10;;;;;;7285419;19;20563;-78
2024/01/16 11:22:50;;;;;;;12.63;3.80;;;16.60;93.90;;;;;;7285786;19;20193;-78
2024/01/16 11:25:18;;;;;;;10.23;4.17;;;16.80;93.30;;;;;;7307068;19;20225;-79
2024/01/16 11:27:47;;;;;;;9.93;4.00;;;16.50;92.60;;;;;;7285437;19;20208;-78
2024/01/16 11:30:30;;;;;;;12.63;4.23;;;16.40;92.10;;;;;;7284931;19;20187;-78
2024/01/16 11:32:55;;;;;;;12.43;4.37;;;16.30;91.50;;;;;;7180666;19;2004580;-78
2024/01/16 11:35:42;;;;;;;9.10;3.60;;;16.20;90.90;;;;;;7283774;19;20259;-78
2024/01/16 11:38:16;;;;;;;13.77;3.97;;;16.10;90.70;;;;;;7285391;19;20181;-78
2024/01/16 11:40:41;;;;;;;11.43;3.60;;;16.20;91.10;;;;;;7283794;19;21083;-79
2024/01/16 11:43:32;;;;;;;9.83;3.30;;;16.00;91.00;;;;;;7284820;19;20194;-78
2024/01/16 11:45:59;;;;;;;11.90;4.73;;;16.10;90.40;;;;;;7180762;19;2004611;-79
2024/01/16 11:48:25;;;;;;;12.23;4.40;;;15.40;90.30;;;;;;7284929;19;20619;-79
2024/01/16 11:50:52;;;;;;;12.17;3.97;;;14.60;90.90;;;;;;7285151;19;20194;-80
2024/01/16 11:53:37;;;;;;;12.07;4.53;;;15.00;92.10;;;;;;7289016;19;20522;-78
2024/01/16 11:56:31;;;;;;;12.53;5.80;;;15.30;91.00;;;;;;7284308;19;20190;-79
2024/01/16 11:59:15;;;;;;;14.37;5.23;;;15.20;91.10;;;;;;7181147;19;2004462;-79
2024/01/16 12:01:44;;;;;;;13.50;5.13;;;15.50;90.70;;;;;;7280065;19;20217;-79
2024/01/16 12:04:10;;;;;;;11.30;4.13;;;16.10;90.60;;;;;;7280240;19;20194;-79
2024/01/16 12:06:40;;;;;;;11.53;4.23;;;16.20;89.90;;;;;;7283392;19;20933;-79
2024/01/16 12:09:13;;;;;;;13.13;4.30;;;16.40;89.30;;;;;;7281938;19;20211;-78
2024/01/16 12:11:45;;;;;;;12.07;4.00;;;16.00;85.80;;;;;;7281899;19;20214;-78
2024/01/16 12:14:14;;;;;;;14.03;5.73;;;15.80;86.20;;;;;;7283130;19;20266;-79
2024/01/16 12:16:40;;;;;;;13.20;3.93;;;15.30;86.90;;;;;;7282344;19;20226;-79
2024/01/16 12:19:09;;;;;;;12.93;4.10;;;15.40;87.90;;;;;;7281663;19;20902;-80
2024/01/16 12:21:43;;;;;;;12.47;3.93;;;15.70;89.20;;;;;;7279989;19;20207;-78
2024/01/16 12:24:10;;;;;;;12.67;5.60;;;15.70;86.80;;;;;;7283499;19;20229;-79
2024/01/16 12:26:37;;;;;;;16.63;5.33;;;15.70;87.40;;;;;;7283621;19;20209;-79
2024/01/16 12:29:03;;;;;;;14.40;4.87;;;15.80;88.70;;;;;;7283151;19;20191;-79
2024/01/16 12:31:29;;;;;;;15.53;4.97;;;16.10;87.40;;;;;;7282894;19;20206;-79
2024/01/16 12:34:13;;;;;;;12.87;5.43;;;15.90;84.70;;;;;;7283603;19;20204;-78
2024/01/16 12:36:39;;;;;;;16.57;5.87;;;15.30;84.10;;;;;;7283985;19;20199;-79
2024/01/16 12:39:05;;;;;;;14.33;4.47;;;15.30;86.50;;;;;;7283324;19;20267;-78
2024/01/16 12:41:39;;;;;;;13.47;4.37;;;14.50;85.90;;;;;;7284312;19;20198;-78
2024/01/16 12:44:05;;;;;;;15.00;4.70;;;14.20;89.30;;;;;;7283693;19;20192;-78
2024/01/16 12:46:32;;;;;;;13.83;5.07;;;14.20;90.00;;;;;;7284106;19;20217;-79